createdAt,value
2017-12-25T00:00:45.055Z,12.00
2017-12-25T00:03:12.950Z,11.90
2017-12-25T00:05:40.724Z,12.00
2017-12-25T00:08:09.284Z,12.00
2017-12-25T00:10:37.238Z,12.00
2017-12-25T00:13:04.993Z,12.00
2017-12-25T00:15:32.806Z,12.00
2017-12-25T00:18:00.582Z,12.00
2017-12-25T00:20:29.111Z,12.00
2017-12-25T00:22:56.907Z,11.90
2017-12-25T00:25:24.681Z,12.00
2017-12-25T00:27:52.313Z,12.00
2017-12-25T00:30:20.010Z,12.00
2017-12-25T00:32:47.640Z,12.00
2017-12-25T00:35:15.272Z,12.00
2017-12-25T00:37:42.902Z,12.00
2017-12-25T00:40:11.264Z,12.00
2017-12-25T00:42:38.875Z,11.90
2017-12-25T00:45:06.527Z,12.00
2017-12-25T00:47:34.125Z,12.00
2017-12-25T00:50:01.762Z,12.00
2017-12-25T00:52:29.372Z,12.10
2017-12-25T00:54:57.032Z,12.00
2017-12-25T00:57:24.637Z,12.00
2017-12-25T00:59:52.275Z,12.10
2017-12-25T01:02:20.672Z,12.00
2017-12-25T01:04:48.300Z,12.00
2017-12-25T01:07:15.937Z,12.00
2017-12-25T01:09:43.536Z,12.00
2017-12-25T01:12:11.910Z,12.00
2017-12-25T01:14:40.312Z,12.00
2017-12-25T01:17:07.944Z,11.90
2017-12-25T01:19:35.572Z,12.00
2017-12-25T01:22:03.161Z,11.90
2017-12-25T01:24:30.812Z,12.00
2017-12-25T01:26:58.437Z,12.00
2017-12-25T01:29:26.125Z,12.00
2017-12-25T01:31:53.729Z,12.00
2017-12-25T01:34:22.095Z,12.00
2017-12-25T01:36:50.472Z,12.00
2017-12-25T01:39:18.098Z,12.00
2017-12-25T01:41:45.760Z,12.00
2017-12-25T01:44:13.388Z,12.00
2017-12-25T01:46:41.022Z,12.00
2017-12-25T01:49:09.388Z,12.00
2017-12-25T01:51:37.024Z,12.00
2017-12-25T01:54:04.674Z,12.00
2017-12-25T01:56:40.233Z,12.00
2017-12-25T01:59:14.687Z,12.00
2017-12-25T02:01:49.286Z,12.00
2017-12-25T02:04:22.888Z,12.00
2017-12-25T02:07:02.309Z,11.90
2017-12-25T02:09:29.899Z,11.90
2017-12-25T02:11:57.530Z,11.90
2017-12-25T02:14:25.154Z,11.90
2017-12-25T02:16:53.528Z,11.90
2017-12-25T02:19:21.937Z,11.90
2017-12-25T02:21:49.552Z,11.90
2017-12-25T02:24:17.212Z,11.90
2017-12-25T02:26:44.816Z,11.90
2017-12-25T02:29:12.441Z,11.90
2017-12-25T02:31:40.809Z,11.90
2017-12-25T02:34:08.461Z,11.90
2017-12-25T02:36:36.053Z,11.90
2017-12-25T02:39:04.452Z,11.90
2017-12-25T02:41:32.069Z,11.80
2017-12-25T02:43:59.666Z,11.80
2017-12-25T02:46:27.297Z,11.80
2017-12-25T02:48:55.659Z,11.80
2017-12-25T02:51:23.293Z,11.80
2017-12-25T02:53:50.885Z,11.80
2017-12-25T02:56:18.498Z,11.80
2017-12-25T02:58:46.121Z,11.80
2017-12-25T03:01:14.490Z,11.80
2017-12-25T03:03:42.120Z,11.80
2017-12-25T03:06:09.757Z,11.80
2017-12-25T03:08:37.380Z,11.80
2017-12-25T03:11:05.794Z,11.80
2017-12-25T03:13:33.404Z,11.80
2017-12-25T03:16:01.025Z,11.80
2017-12-25T03:18:28.627Z,11.80
2017-12-25T03:20:56.326Z,11.80
2017-12-25T03:23:24.732Z,11.80
2017-12-25T03:25:52.362Z,11.70
2017-12-25T03:28:20.756Z,11.70
2017-12-25T03:30:48.353Z,11.70
2017-12-25T03:33:15.992Z,11.80
2017-12-25T03:35:43.584Z,11.80
2017-12-25T03:38:11.188Z,11.80
2017-12-25T03:40:38.813Z,11.70
2017-12-25T03:43:06.404Z,11.80
2017-12-25T03:45:34.801Z,11.80
2017-12-25T03:48:02.412Z,11.80
2017-12-25T03:50:30.793Z,11.80
2017-12-25T03:52:58.412Z,11.80
2017-12-25T03:55:26.013Z,11.80
2017-12-25T03:57:54.418Z,11.80
2017-12-25T04:00:22.797Z,11.90
2017-12-25T04:02:51.161Z,11.90
2017-12-25T04:05:19.563Z,11.90
2017-12-25T04:07:47.260Z,11.80
2017-12-25T04:10:14.899Z,11.80
2017-12-25T04:12:42.480Z,11.80
2017-12-25T04:15:10.077Z,11.90
2017-12-25T04:17:37.724Z,11.80
2017-12-25T04:20:05.341Z,11.80
2017-12-25T04:22:32.966Z,11.90
2017-12-25T04:25:01.363Z,11.90
2017-12-25T04:27:29.737Z,11.90
2017-12-25T04:29:58.146Z,11.80
2017-12-25T04:32:25.759Z,11.80
2017-12-25T04:34:53.385Z,11.80
2017-12-25T04:37:21.864Z,11.80
2017-12-25T04:39:49.533Z,11.80
2017-12-25T04:42:17.166Z,11.80
2017-12-25T04:44:44.753Z,11.80
2017-12-25T04:47:12.385Z,11.80
2017-12-25T04:49:39.989Z,11.80
2017-12-25T04:52:07.601Z,11.80
2017-12-25T04:54:35.220Z,11.70
2017-12-25T04:57:02.817Z,11.70
2017-12-25T04:59:31.220Z,11.70
2017-12-25T05:01:58.819Z,11.70
2017-12-25T05:04:26.439Z,11.70
2017-12-25T05:06:54.069Z,11.70
2017-12-25T05:09:22.425Z,11.70
2017-12-25T05:11:50.058Z,11.70
2017-12-25T05:14:17.657Z,11.70
2017-12-25T05:16:45.252Z,11.70
2017-12-25T05:19:12.893Z,11.70
2017-12-25T05:21:41.257Z,11.70
2017-12-25T05:24:09.696Z,11.70
2017-12-25T05:26:37.297Z,11.70
2017-12-25T05:29:04.897Z,11.70
2017-12-25T05:31:32.537Z,11.70
2017-12-25T05:34:00.899Z,11.70
2017-12-25T05:36:29.294Z,11.70
2017-12-25T05:38:57.651Z,11.80
2017-12-25T05:41:25.269Z,11.70
2017-12-25T05:43:52.901Z,11.70
2017-12-25T05:46:20.502Z,11.70
2017-12-25T05:48:48.126Z,11.70
2017-12-25T05:51:15.741Z,11.70
2017-12-25T05:53:43.376Z,11.70
2017-12-25T05:56:10.973Z,11.70
2017-12-25T05:58:38.586Z,11.70
2017-12-25T06:01:06.229Z,11.70
2017-12-25T06:03:34.133Z,11.70
2017-12-25T06:06:01.757Z,11.70
2017-12-25T06:08:29.381Z,11.70
2017-12-25T06:10:57.085Z,11.70
2017-12-25T06:13:24.748Z,11.70
2017-12-25T06:15:52.485Z,11.70
2017-12-25T06:18:24.956Z,11.70
2017-12-25T06:20:53.386Z,11.70
2017-12-25T06:23:21.056Z,11.60
2017-12-25T06:25:48.663Z,11.60
2017-12-25T06:28:17.225Z,11.70
2017-12-25T06:30:44.832Z,11.60
2017-12-25T06:33:12.520Z,11.60
2017-12-25T06:35:40.113Z,11.70
2017-12-25T06:38:07.822Z,11.70
2017-12-25T06:40:35.429Z,11.70
2017-12-25T06:43:03.083Z,11.70
2017-12-25T06:45:30.728Z,11.70
2017-12-25T06:47:58.342Z,11.70
2017-12-25T06:50:26.737Z,11.70
2017-12-25T06:52:54.339Z,11.70
2017-12-25T06:55:21.986Z,11.70
2017-12-25T06:57:49.612Z,11.70
2017-12-25T07:00:17.976Z,11.70
2017-12-25T07:02:46.364Z,11.70
2017-12-25T07:05:14.787Z,11.70
2017-12-25T07:07:42.448Z,11.70
2017-12-25T07:10:10.041Z,11.70
2017-12-25T07:12:37.674Z,11.70
2017-12-25T07:15:05.305Z,11.70
2017-12-25T07:17:32.909Z,11.70
2017-12-25T07:20:01.327Z,11.70
2017-12-25T07:22:29.687Z,11.70
2017-12-25T07:24:57.317Z,11.60
2017-12-25T07:27:24.925Z,11.70
2017-12-25T07:29:53.343Z,11.70
2017-12-25T07:32:20.941Z,11.60
2017-12-25T07:34:48.569Z,11.70
2017-12-25T07:37:16.158Z,11.70
2017-12-25T07:39:43.793Z,11.70
2017-12-25T07:42:11.469Z,11.70
2017-12-25T07:44:39.068Z,11.70
2017-12-25T07:47:07.453Z,11.60
2017-12-25T07:49:35.809Z,11.60
2017-12-25T07:52:03.450Z,11.60
2017-12-25T07:54:31.049Z,11.60
2017-12-25T07:56:59.409Z,11.60
2017-12-25T07:59:27.803Z,11.60
2017-12-25T08:01:56.164Z,11.60
2017-12-25T08:04:23.799Z,11.50
2017-12-25T08:06:51.402Z,11.60
2017-12-25T08:09:19.776Z,11.60
2017-12-25T08:11:47.408Z,11.50
2017-12-25T08:14:15.011Z,11.60
2017-12-25T08:16:43.401Z,11.50
2017-12-25T08:19:11.002Z,11.50
2017-12-25T08:21:38.623Z,11.60
2017-12-25T08:24:06.229Z,11.60
2017-12-25T08:26:33.883Z,11.50
2017-12-25T08:29:01.540Z,11.50
2017-12-25T08:31:29.205Z,11.60
2017-12-25T08:33:56.999Z,11.60
2017-12-25T08:36:24.607Z,11.60
2017-12-25T08:38:52.233Z,11.60
2017-12-25T08:41:20.597Z,11.60
2017-12-25T08:43:48.266Z,11.50
2017-12-25T08:46:15.873Z,11.50
2017-12-25T08:48:43.472Z,11.50
2017-12-25T08:51:11.121Z,11.50
2017-12-25T08:53:38.736Z,11.60
2017-12-25T08:56:07.126Z,11.50
2017-12-25T08:58:34.721Z,11.50
2017-12-25T09:01:02.589Z,11.50
2017-12-25T09:03:30.184Z,11.50
2017-12-25T09:05:58.563Z,11.50
2017-12-25T09:08:26.972Z,11.60
2017-12-25T09:10:54.568Z,11.50
2017-12-25T09:13:22.205Z,11.60
2017-12-25T09:15:49.801Z,11.60
2017-12-25T09:18:17.437Z,11.60
2017-12-25T09:20:45.033Z,11.60
2017-12-25T09:23:12.651Z,11.60
2017-12-25T09:25:40.273Z,11.60
2017-12-25T09:28:08.826Z,11.60
2017-12-25T09:30:36.455Z,11.60
2017-12-25T09:33:04.051Z,11.60
2017-12-25T09:35:31.678Z,11.60
2017-12-25T09:37:59.276Z,11.60
2017-12-25T09:40:26.897Z,11.60
2017-12-25T09:42:54.588Z,11.60
2017-12-25T09:45:22.200Z,11.60
2017-12-25T09:47:49.817Z,11.60
2017-12-25T09:50:17.438Z,11.70
2017-12-25T09:52:45.100Z,11.70
2017-12-25T09:55:12.776Z,11.70
2017-12-25T09:57:40.369Z,11.70
2017-12-25T10:00:08.099Z,11.70
2017-12-25T10:02:35.694Z,11.60
2017-12-25T10:05:03.325Z,11.70
2017-12-25T10:07:30.918Z,11.70
2017-12-25T10:09:58.541Z,11.70
2017-12-25T10:12:26.137Z,11.70
2017-12-25T10:14:53.869Z,11.70
2017-12-25T10:17:21.490Z,11.70
2017-12-25T10:19:50.033Z,11.70
2017-12-25T10:22:17.660Z,11.70
2017-12-25T10:24:45.259Z,11.70
2017-12-25T10:27:12.876Z,11.70
2017-12-25T10:29:40.481Z,11.70
2017-12-25T10:32:08.882Z,11.70
2017-12-25T10:34:37.260Z,11.70
2017-12-25T10:37:05.660Z,11.70
2017-12-25T10:39:33.293Z,11.70
2017-12-25T10:42:01.744Z,11.70
2017-12-25T10:44:29.352Z,11.60
2017-12-25T10:46:56.988Z,11.70
2017-12-25T10:49:24.725Z,11.70
2017-12-25T10:51:53.133Z,11.70
2017-12-25T10:54:20.756Z,11.60
2017-12-25T10:56:48.345Z,11.60
2017-12-25T10:59:16.181Z,11.70
2017-12-25T11:01:43.785Z,11.70
2017-12-25T11:04:11.388Z,11.60
2017-12-25T11:06:39.032Z,11.60
2017-12-25T11:09:06.630Z,11.60
2017-12-25T11:11:34.285Z,11.70
2017-12-25T11:14:01.893Z,11.60
2017-12-25T11:16:30.313Z,11.60
2017-12-25T11:18:57.917Z,11.60
2017-12-25T11:21:25.554Z,11.60
2017-12-25T11:23:53.211Z,11.60
2017-12-25T11:26:20.818Z,11.60
2017-12-25T11:28:49.187Z,11.60
2017-12-25T11:31:16.788Z,11.60
2017-12-25T11:33:44.437Z,11.60
2017-12-25T11:36:12.030Z,11.60
2017-12-25T11:38:39.653Z,11.60
2017-12-25T11:41:08.177Z,11.60
2017-12-25T11:43:35.817Z,11.60
2017-12-25T11:46:04.310Z,11.60
2017-12-25T11:48:31.939Z,11.60
2017-12-25T11:51:00.473Z,11.60
2017-12-25T11:53:28.351Z,11.50
2017-12-25T11:55:56.623Z,11.60
2017-12-25T11:58:24.496Z,11.60
2017-12-25T12:00:52.465Z,11.60
2017-12-25T12:03:20.343Z,11.60
2017-12-25T12:05:48.247Z,11.60
2017-12-25T12:08:17.113Z,11.60
2017-12-25T12:10:45.058Z,11.60
2017-12-25T12:13:12.873Z,11.60
2017-12-25T12:15:40.787Z,11.60
2017-12-25T12:18:08.595Z,11.60
2017-12-25T12:20:37.235Z,11.60
2017-12-25T12:23:05.210Z,11.50
2017-12-25T12:25:33.073Z,11.60
2017-12-25T12:28:02.608Z,11.50
2017-12-25T12:30:30.652Z,11.50
2017-12-25T12:32:58.484Z,11.50
2017-12-25T12:35:26.378Z,11.50
2017-12-25T12:37:56.179Z,11.50
2017-12-25T12:40:24.076Z,11.50
2017-12-25T12:42:51.920Z,11.50
2017-12-25T12:45:20.062Z,11.50
2017-12-25T12:47:48.076Z,11.50
2017-12-25T12:50:15.867Z,11.50
2017-12-25T12:52:44.258Z,11.60
2017-12-25T12:55:12.050Z,11.50
2017-12-25T12:57:39.825Z,11.60
2017-12-25T13:00:07.661Z,11.60
2017-12-25T13:02:35.457Z,11.60
2017-12-25T13:05:03.347Z,11.60
2017-12-25T13:07:31.204Z,11.50
2017-12-25T13:09:59.028Z,11.50
2017-12-25T13:12:26.791Z,11.50
2017-12-25T13:14:56.957Z,11.50
2017-12-25T13:17:25.027Z,11.50
2017-12-25T13:19:52.999Z,11.50
2017-12-25T13:22:21.592Z,11.50
2017-12-25T13:24:49.455Z,11.50
2017-12-25T13:27:17.430Z,11.50
2017-12-25T13:29:45.290Z,11.50
2017-12-25T13:32:13.207Z,11.50
2017-12-25T13:34:41.122Z,11.60
2017-12-25T13:37:11.266Z,11.60
2017-12-25T13:39:39.104Z,11.60
2017-12-25T13:42:06.975Z,11.60
2017-12-25T13:44:34.940Z,11.50
2017-12-25T13:47:02.755Z,11.50
2017-12-25T13:49:30.670Z,11.50
2017-12-25T13:51:58.462Z,11.60
2017-12-25T13:54:26.289Z,11.60
2017-12-25T13:56:54.128Z,11.60
2017-12-25T13:59:22.036Z,11.60
2017-12-25T14:01:49.907Z,11.60
2017-12-25T14:04:17.873Z,11.60
2017-12-25T14:06:45.748Z,11.60
2017-12-25T14:09:13.716Z,11.60
2017-12-25T14:11:41.580Z,11.60
2017-12-25T14:14:09.439Z,11.60
2017-12-25T14:16:37.412Z,11.50
2017-12-25T14:19:05.278Z,11.50
2017-12-25T14:21:33.362Z,11.50
2017-12-25T14:24:01.216Z,11.50
2017-12-25T14:26:29.081Z,11.50
2017-12-25T14:28:56.952Z,11.50
2017-12-25T14:31:24.823Z,11.50
2017-12-25T14:33:53.605Z,11.50
2017-12-25T14:36:21.479Z,11.50
2017-12-25T14:38:49.440Z,11.50
2017-12-25T14:41:17.305Z,11.40
2017-12-25T14:43:45.182Z,11.40
2017-12-25T14:46:12.801Z,11.40
2017-12-25T14:48:40.430Z,11.40
2017-12-25T14:51:08.834Z,11.40
2017-12-25T14:53:36.636Z,11.40
2017-12-25T14:56:04.442Z,11.40
2017-12-25T14:58:33.009Z,11.40
2017-12-25T15:01:00.858Z,11.30
2017-12-25T15:03:28.688Z,11.40
2017-12-25T15:05:56.494Z,11.40
2017-12-25T15:08:24.354Z,11.40
2017-12-25T15:10:52.229Z,11.40
2017-12-25T15:13:19.998Z,11.40
2017-12-25T15:15:47.632Z,11.40
2017-12-25T15:18:15.230Z,11.40
2017-12-25T15:20:42.869Z,11.40
2017-12-25T15:23:10.733Z,11.40
2017-12-25T15:25:38.610Z,11.40
2017-12-25T15:28:06.579Z,11.40
2017-12-25T15:30:34.442Z,11.40
2017-12-25T15:33:02.409Z,11.40
2017-12-25T15:35:30.221Z,11.40
2017-12-25T15:37:58.866Z,11.40
2017-12-25T15:40:26.838Z,11.40
2017-12-25T15:42:54.700Z,11.40
2017-12-25T15:45:22.668Z,11.40
2017-12-25T15:47:50.639Z,11.40
2017-12-25T15:50:18.979Z,11.40
2017-12-25T15:52:47.694Z,11.30
2017-12-25T15:55:15.674Z,11.30
2017-12-25T15:57:43.539Z,11.30
2017-12-25T16:00:11.404Z,11.30
2017-12-25T16:02:39.378Z,11.30
2017-12-25T16:05:07.247Z,11.30
2017-12-25T16:07:35.206Z,11.30
2017-12-25T16:10:03.075Z,11.30
2017-12-25T16:12:31.048Z,11.30
2017-12-25T16:14:58.923Z,11.30
2017-12-25T16:17:26.844Z,11.30
2017-12-25T16:19:54.755Z,11.30
2017-12-25T16:22:22.718Z,11.30
2017-12-25T16:24:50.792Z,11.30
2017-12-25T16:27:19.429Z,11.30
2017-12-25T16:29:47.398Z,11.20
2017-12-25T16:32:16.365Z,11.30
2017-12-25T16:34:45.020Z,11.30
2017-12-25T16:37:13.088Z,11.20
2017-12-25T16:39:40.961Z,11.20
2017-12-25T16:42:08.819Z,11.20
2017-12-25T16:44:36.689Z,11.20
2017-12-25T16:47:04.516Z,11.20
2017-12-25T16:49:32.426Z,11.20
2017-12-25T16:52:00.292Z,11.20
2017-12-25T16:54:28.058Z,11.20
2017-12-25T16:56:56.031Z,11.20
2017-12-25T16:59:23.888Z,11.20
2017-12-25T17:01:51.759Z,11.20
2017-12-25T17:04:19.620Z,11.20
2017-12-25T17:06:47.494Z,11.20
2017-12-25T17:09:15.365Z,11.20
2017-12-25T17:11:43.246Z,11.20
2017-12-25T17:14:10.865Z,11.20
2017-12-25T17:16:38.475Z,11.30
2017-12-25T17:19:06.881Z,11.30
2017-12-25T17:21:34.475Z,11.20
2017-12-25T17:24:02.113Z,11.30
2017-12-25T17:26:29.721Z,11.30
2017-12-25T17:28:57.341Z,11.30
2017-12-25T17:31:24.974Z,11.30
2017-12-25T17:33:53.341Z,11.30
2017-12-25T17:36:20.970Z,11.20
2017-12-25T17:38:48.577Z,11.30
2017-12-25T17:41:16.969Z,11.30
2017-12-25T17:43:44.567Z,11.20
2017-12-25T17:46:12.536Z,11.30
2017-12-25T17:48:40.408Z,11.30
2017-12-25T17:51:08.375Z,11.20
2017-12-25T17:53:36.342Z,11.20
2017-12-25T17:56:04.209Z,11.20
2017-12-25T17:58:32.175Z,11.20
2017-12-25T18:01:00.154Z,11.10
2017-12-25T18:03:28.939Z,11.00
2017-12-25T18:05:56.801Z,11.00
2017-12-25T18:08:24.675Z,11.00
2017-12-25T18:10:52.636Z,11.00
2017-12-25T18:13:20.451Z,11.00
2017-12-25T18:15:49.937Z,11.00
2017-12-25T18:18:17.731Z,11.00
2017-12-25T18:20:46.864Z,11.10
2017-12-25T18:23:14.620Z,11.10
2017-12-25T18:25:42.440Z,11.10
2017-12-25T18:28:10.962Z,11.20
2017-12-25T18:30:38.774Z,11.10
2017-12-25T18:33:06.576Z,11.20
2017-12-25T18:35:34.368Z,11.20
2017-12-25T18:38:02.137Z,11.20
2017-12-25T18:40:29.961Z,11.20
2017-12-25T18:42:57.799Z,11.20
2017-12-25T18:45:25.612Z,11.20
2017-12-25T18:47:53.436Z,11.20
2017-12-25T18:50:22.096Z,11.20
2017-12-25T18:52:50.066Z,11.20
2017-12-25T18:55:17.924Z,11.20
2017-12-25T18:57:45.791Z,11.20
2017-12-25T19:00:13.660Z,11.20
2017-12-25T19:02:41.528Z,11.20
2017-12-25T19:05:09.501Z,11.30
2017-12-25T19:07:37.317Z,11.20
2017-12-25T19:10:05.127Z,11.20
2017-12-25T19:12:33.093Z,11.30
2017-12-25T19:15:00.959Z,11.30
2017-12-25T19:17:28.841Z,11.30
2017-12-25T19:19:56.590Z,11.30
2017-12-25T19:22:24.566Z,11.30
2017-12-25T19:24:52.431Z,11.30
2017-12-25T19:27:20.296Z,11.30
2017-12-25T19:29:48.156Z,11.30
2017-12-25T19:32:15.766Z,11.40
2017-12-25T19:34:44.153Z,11.30
2017-12-25T19:37:11.752Z,11.30
2017-12-25T19:39:39.380Z,11.30
2017-12-25T19:42:06.985Z,11.40
2017-12-25T19:44:34.609Z,11.30
2017-12-25T19:47:02.233Z,11.30
2017-12-25T19:49:29.920Z,11.30
2017-12-25T19:51:58.289Z,11.30
2017-12-25T19:54:26.737Z,11.30
2017-12-25T19:56:54.377Z,11.30
2017-12-25T19:59:22.144Z,11.30
2017-12-25T20:01:49.967Z,11.30
2017-12-25T20:04:18.521Z,11.40
2017-12-25T20:06:46.314Z,11.30
2017-12-25T20:09:14.855Z,11.40
2017-12-25T20:11:42.674Z,11.30
2017-12-25T20:14:10.561Z,11.30
2017-12-25T20:16:38.401Z,11.30
2017-12-25T20:19:06.033Z,11.30
2017-12-25T20:21:33.643Z,11.30
2017-12-25T20:24:01.316Z,11.30
2017-12-25T20:26:29.748Z,11.30
2017-12-25T20:28:58.148Z,11.30
2017-12-25T20:31:25.741Z,11.30
2017-12-25T20:33:53.370Z,11.30
2017-12-25T20:36:21.000Z,11.30
2017-12-25T20:38:48.599Z,11.30
2017-12-25T20:41:16.277Z,11.30
2017-12-25T20:43:43.897Z,11.30
2017-12-25T20:46:12.319Z,11.30
2017-12-25T20:48:39.925Z,11.20
2017-12-25T20:51:07.557Z,11.30
2017-12-25T20:53:35.165Z,11.30
2017-12-25T20:56:04.306Z,11.30
2017-12-25T20:58:31.941Z,11.20
2017-12-25T21:00:59.602Z,11.30
2017-12-25T21:03:27.253Z,11.30
2017-12-25T21:05:54.859Z,11.30
2017-12-25T21:08:22.496Z,11.30
2017-12-25T21:10:50.104Z,11.30
2017-12-25T21:13:17.717Z,11.30
2017-12-25T21:15:45.370Z,11.30
2017-12-25T21:18:13.244Z,11.30
2017-12-25T21:20:40.870Z,11.30
2017-12-25T21:23:09.251Z,11.20
2017-12-25T21:25:38.846Z,11.20
2017-12-25T21:28:07.274Z,11.20
2017-12-25T21:30:35.784Z,11.20
2017-12-25T21:33:03.382Z,11.10
2017-12-25T21:35:31.750Z,11.20
2017-12-25T21:38:00.191Z,11.20
2017-12-25T21:40:28.611Z,11.20
2017-12-25T21:42:56.995Z,11.20
2017-12-25T21:45:25.359Z,11.20
2017-12-25T21:47:53.207Z,11.20
2017-12-25T21:50:20.815Z,11.20
2017-12-25T21:52:48.421Z,11.20
2017-12-25T21:55:16.057Z,11.20
2017-12-25T21:57:43.687Z,11.20
2017-12-25T22:00:12.133Z,11.20
2017-12-25T22:02:39.825Z,11.10
2017-12-25T22:05:08.257Z,11.10
2017-12-25T22:07:35.854Z,11.10
2017-12-25T22:10:03.462Z,11.10
2017-12-25T22:12:31.111Z,11.10
2017-12-25T22:14:58.798Z,11.10
2017-12-25T22:17:26.437Z,11.10
2017-12-25T22:19:55.167Z,11.10
2017-12-25T22:22:22.806Z,11.10
2017-12-25T22:24:50.405Z,11.10
2017-12-25T22:27:18.236Z,11.10
2017-12-25T22:29:45.893Z,11.20
2017-12-25T22:32:13.665Z,11.10
2017-12-25T22:34:42.040Z,11.10
2017-12-25T22:37:11.463Z,11.10
2017-12-25T22:39:40.276Z,11.10
2017-12-25T22:42:07.900Z,11.10
2017-12-25T22:44:35.500Z,11.10
2017-12-25T22:47:03.138Z,11.10
2017-12-25T22:49:30.756Z,11.10
2017-12-25T22:51:58.474Z,11.10
2017-12-25T22:54:26.080Z,11.10
2017-12-25T22:56:53.708Z,11.10
2017-12-25T22:59:22.069Z,11.00
2017-12-25T23:01:49.665Z,11.00
2017-12-25T23:04:17.363Z,11.00
2017-12-25T23:06:44.965Z,11.00
2017-12-25T23:09:12.690Z,11.00
2017-12-25T23:11:40.283Z,11.00
2017-12-25T23:14:08.659Z,10.90
2017-12-25T23:16:36.280Z,10.90
2017-12-25T23:19:03.876Z,10.90
2017-12-25T23:21:31.517Z,10.90
2017-12-25T23:23:59.881Z,10.90
2017-12-25T23:26:27.493Z,10.80
2017-12-25T23:28:55.877Z,10.80
2017-12-25T23:31:24.246Z,10.80
2017-12-25T23:33:51.898Z,10.80
2017-12-25T23:36:19.496Z,10.80
2017-12-25T23:38:47.104Z,10.80
2017-12-25T23:41:14.721Z,10.80
2017-12-25T23:43:42.345Z,10.80
2017-12-25T23:46:10.085Z,10.80
2017-12-25T23:48:37.669Z,10.80
2017-12-25T23:51:05.260Z,10.80
2017-12-25T23:53:33.643Z,10.80
2017-12-25T23:56:01.348Z,10.70
2017-12-25T23:58:28.969Z,10.80
